sensor_id;sensor_type;location;lat;lon;timestamp;P1;durP1;ratioP1;P2;durP2;ratioP2
47599;SDS011;33323;52.124;6.018;2024-02-21T00:01:24;32.40;;;12.52;;
47599;SDS011;33323;52.124;6.018;2024-02-21T00:03:51;30.45;;;12.60;;
47599;SDS011;33323;52.124;6.018;2024-02-21T00:06:18;22.13;;;10.50;;
47599;SDS011;33323;52.124;6.018;2024-02-21T00:08:46;25.17;;;10.95;;
47599;SDS011;33323;52.124;6.018;2024-02-21T00:11:13;22.95;;;12.02;;
47599;SDS011;33323;52.124;6.018;2024-02-21T00:13:41;26.85;;;11.57;;
47599;SDS011;33323;52.124;6.018;2024-02-21T00:16:08;23.08;;;10.40;;
47599;SDS011;33323;52.124;6.018;2024-02-21T00:18:37;23.05;;;10.23;;
47599;SDS011;33323;52.124;6.018;2024-02-21T00:21:04;28.23;;;11.10;;
47599;SDS011;33323;52.124;6.018;2024-02-21T00:23:31;22.30;;;9.95;;
47599;SDS011;33323;52.124;6.018;2024-02-21T00:25:58;25.25;;;10.25;;
47599;SDS011;33323;52.124;6.018;2024-02-21T00:28:25;23.83;;;9.93;;
47599;SDS011;33323;52.124;6.018;2024-02-21T00:30:52;28.90;;;9.68;;
47599;SDS011;33323;52.124;6.018;2024-02-21T00:33:20;20.63;;;9.05;;
47599;SDS011;33323;52.124;6.018;2024-02-21T00:35:48;18.70;;;8.70;;
47599;SDS011;33323;52.124;6.018;2024-02-21T00:38:15;18.60;;;8.23;;
47599;SDS011;33323;52.124;6.018;2024-02-21T00:40:42;18.63;;;8.52;;
47599;SDS011;33323;52.124;6.018;2024-02-21T00:43:09;20.00;;;8.07;;
47599;SDS011;33323;52.124;6.018;2024-02-21T00:45:36;14.80;;;7.90;;
47599;SDS011;33323;52.124;6.018;2024-02-21T00:48:03;26.83;;;9.85;;
47599;SDS011;33323;52.124;6.018;2024-02-21T00:50:31;20.33;;;7.47;;
47599;SDS011;33323;52.124;6.018;2024-02-21T00:52:58;20.75;;;8.85;;
47599;SDS011;33323;52.124;6.018;2024-02-21T00:55:25;16.80;;;8.30;;
47599;SDS011;33323;52.124;6.018;2024-02-21T00:57:52;13.70;;;7.88;;
47599;SDS011;33323;52.124;6.018;2024-02-21T01:00:19;22.42;;;8.80;;
47599;SDS011;33323;52.124;6.018;2024-02-21T01:02:46;15.10;;;7.97;;
47599;SDS011;33323;52.124;6.018;2024-02-21T01:05:15;20.95;;;8.30;;
47599;SDS011;33323;52.124;6.018;2024-02-21T01:07:42;16.55;;;7.90;;
47599;SDS011;33323;52.124;6.018;2024-02-21T01:10:09;19.67;;;8.07;;
47599;SDS011;33323;52.124;6.018;2024-02-21T01:12:36;15.85;;;8.38;;
47599;SDS011;33323;52.124;6.018;2024-02-21T01:15:04;17.15;;;7.88;;
47599;SDS011;33323;52.124;6.018;2024-02-21T01:17:32;16.55;;;8.18;;
47599;SDS011;33323;52.124;6.018;2024-02-21T01:19:59;19.77;;;8.30;;
47599;SDS011;33323;52.124;6.018;2024-02-21T01:22:27;20.58;;;10.38;;
47599;SDS011;33323;52.124;6.018;2024-02-21T01:24:55;28.50;;;9.55;;
47599;SDS011;33323;52.124;6.018;2024-02-21T01:27:22;20.27;;;8.45;;
47599;SDS011;33323;52.124;6.018;2024-02-21T01:29:49;22.17;;;8.55;;
47599;SDS011;33323;52.124;6.018;2024-02-21T01:32:16;14.85;;;8.95;;
47599;SDS011;33323;52.124;6.018;2024-02-21T01:34:43;18.02;;;8.70;;
47599;SDS011;33323;52.124;6.018;2024-02-21T01:37:10;16.48;;;7.68;;
47599;SDS011;33323;52.124;6.018;2024-02-21T01:39:37;21.45;;;9.20;;
47599;SDS011;33323;52.124;6.018;2024-02-21T01:42:04;16.55;;;8.80;;
47599;SDS011;33323;52.124;6.018;2024-02-21T01:44:31;21.05;;;8.45;;
47599;SDS011;33323;52.124;6.018;2024-02-21T01:46:58;19.02;;;9.18;;
47599;SDS011;33323;52.124;6.018;2024-02-21T01:49:25;18.55;;;8.45;;
47599;SDS011;33323;52.124;6.018;2024-02-21T01:51:53;16.42;;;7.47;;
47599;SDS011;33323;52.124;6.018;2024-02-21T01:54:20;17.63;;;8.82;;
47599;SDS011;33323;52.124;6.018;2024-02-21T01:56:48;22.77;;;7.80;;
47599;SDS011;33323;52.124;6.018;2024-02-21T01:59:18;15.38;;;8.20;;
47599;SDS011;33323;52.124;6.018;2024-02-21T02:01:46;18.00;;;8.73;;
47599;SDS011;33323;52.124;6.018;2024-02-21T02:04:14;23.67;;;7.38;;
47599;SDS011;33323;52.124;6.018;2024-02-21T02:06:41;20.92;;;8.55;;
47599;SDS011;33323;52.124;6.018;2024-02-21T02:09:08;15.10;;;7.03;;
47599;SDS011;33323;52.124;6.018;2024-02-21T02:11:35;21.48;;;9.73;;
47599;SDS011;33323;52.124;6.018;2024-02-21T02:14:03;18.73;;;6.88;;
47599;SDS011;33323;52.124;6.018;2024-02-21T02:16:30;13.77;;;7.28;;
47599;SDS011;33323;52.124;6.018;2024-02-21T02:18:57;23.08;;;9.20;;
47599;SDS011;33323;52.124;6.018;2024-02-21T02:21:37;14.50;;;7.15;;
47599;SDS011;33323;52.124;6.018;2024-02-21T02:24:07;19.55;;;6.50;;
47599;SDS011;33323;52.124;6.018;2024-02-21T02:26:34;13.82;;;6.90;;
47599;SDS011;33323;52.124;6.018;2024-02-21T02:29:02;14.13;;;6.68;;
47599;SDS011;33323;52.124;6.018;2024-02-21T02:31:29;18.17;;;6.90;;
47599;SDS011;33323;52.124;6.018;2024-02-21T02:33:56;13.40;;;7.07;;
47599;SDS011;33323;52.124;6.018;2024-02-21T02:36:23;16.23;;;7.63;;
47599;SDS011;33323;52.124;6.018;2024-02-21T02:38:50;16.10;;;7.28;;
47599;SDS011;33323;52.124;6.018;2024-02-21T02:41:17;16.98;;;8.88;;
47599;SDS011;33323;52.124;6.018;2024-02-21T02:43:44;15.70;;;7.45;;
47599;SDS011;33323;52.124;6.018;2024-02-21T02:46:11;26.25;;;7.93;;
47599;SDS011;33323;52.124;6.018;2024-02-21T02:48:38;19.00;;;7.38;;
47599;SDS011;33323;52.124;6.018;2024-02-21T02:51:05;13.93;;;6.25;;
47599;SDS011;33323;52.124;6.018;2024-02-21T02:53:32;17.38;;;6.47;;
47599;SDS011;33323;52.124;6.018;2024-02-21T02:55:59;16.80;;;7.47;;
47599;SDS011;33323;52.124;6.018;2024-02-21T02:58:26;13.80;;;6.63;;
47599;SDS011;33323;52.124;6.018;2024-02-21T03:00:53;20.23;;;7.93;;
47599;SDS011;33323;52.124;6.018;2024-02-21T03:03:20;23.40;;;6.68;;
47599;SDS011;33323;52.124;6.018;2024-02-21T03:05:47;18.17;;;8.18;;
47599;SDS011;33323;52.124;6.018;2024-02-21T03:08:14;16.70;;;5.90;;
47599;SDS011;33323;52.124;6.018;2024-02-21T03:10:41;16.98;;;7.05;;
47599;SDS011;33323;52.124;6.018;2024-02-21T03:13:09;8.80;;;5.57;;
47599;SDS011;33323;52.124;6.018;2024-02-21T03:15:36;21.38;;;6.85;;
47599;SDS011;33323;52.124;6.018;2024-02-21T03:18:03;16.20;;;6.95;;
47599;SDS011;33323;52.124;6.018;2024-02-21T03:20:30;22.90;;;7.22;;
47599;SDS011;33323;52.124;6.018;2024-02-21T03:22:57;18.63;;;9.15;;
47599;SDS011;33323;52.124;6.018;2024-02-21T03:25:24;16.73;;;6.72;;
47599;SDS011;33323;52.124;6.018;2024-02-21T03:27:51;15.57;;;6.70;;
47599;SDS011;33323;52.124;6.018;2024-02-21T03:30:18;14.27;;;6.53;;
47599;SDS011;33323;52.124;6.018;2024-02-21T03:32:45;22.27;;;8.50;;
47599;SDS011;33323;52.124;6.018;2024-02-21T03:35:12;18.95;;;7.05;;
47599;SDS011;33323;52.124;6.018;2024-02-21T03:37:39;18.90;;;6.65;;
47599;SDS011;33323;52.124;6.018;2024-02-21T03:40:07;20.23;;;7.03;;
47599;SDS011;33323;52.124;6.018;2024-02-21T03:42:35;16.42;;;6.63;;
47599;SDS011;33323;52.124;6.018;2024-02-21T03:45:04;12.93;;;6.68;;
47599;SDS011;33323;52.124;6.018;2024-02-21T03:47:31;12.23;;;6.47;;
47599;SDS011;33323;52.124;6.018;2024-02-21T03:49:58;12.02;;;7.20;;
47599;SDS011;33323;52.124;6.018;2024-02-21T03:52:27;22.48;;;7.50;;
47599;SDS011;33323;52.124;6.018;2024-02-21T03:54:54;17.52;;;5.88;;
47599;SDS011;33323;52.124;6.018;2024-02-21T03:57:21;19.77;;;6.97;;
47599;SDS011;33323;52.124;6.018;2024-02-21T03:59:51;16.27;;;6.82;;
47599;SDS011;33323;52.124;6.018;2024-02-21T04:02:18;12.75;;;7.35;;
47599;SDS011;33323;52.124;6.018;2024-02-21T04:04:45;20.70;;;8.02;;
47599;SDS011;33323;52.124;6.018;2024-02-21T04:07:14;18.80;;;8.10;;
47599;SDS011;33323;52.124;6.018;2024-02-21T04:09:41;21.15;;;9.52;;
47599;SDS011;33323;52.124;6.018;2024-02-21T04:12:09;18.20;;;7.05;;
47599;SDS011;33323;52.124;6.018;2024-02-21T04:14:36;17.45;;;8.15;;
47599;SDS011;33323;52.124;6.018;2024-02-21T04:17:03;19.95;;;8.70;;
47599;SDS011;33323;52.124;6.018;2024-02-21T04:19:31;18.15;;;9.15;;
47599;SDS011;33323;52.124;6.018;2024-02-21T04:22:00;25.77;;;10.65;;
47599;SDS011;33323;52.124;6.018;2024-02-21T04:24:27;24.08;;;10.95;;
47599;SDS011;33323;52.124;6.018;2024-02-21T04:26:54;23.58;;;9.93;;
47599;SDS011;33323;52.124;6.018;2024-02-21T04:29:21;19.92;;;10.65;;
47599;SDS011;33323;52.124;6.018;2024-02-21T04:31:48;19.30;;;9.40;;
47599;SDS011;33323;52.124;6.018;2024-02-21T04:34:15;29.05;;;9.73;;
47599;SDS011;33323;52.124;6.018;2024-02-21T04:36:42;24.38;;;9.60;;
47599;SDS011;33323;52.124;6.018;2024-02-21T04:39:09;22.35;;;9.93;;
47599;SDS011;33323;52.124;6.018;2024-02-21T04:41:38;19.20;;;9.77;;
47599;SDS011;33323;52.124;6.018;2024-02-21T04:44:05;30.00;;;10.82;;
47599;SDS011;33323;52.124;6.018;2024-02-21T04:46:32;19.02;;;10.30;;
47599;SDS011;33323;52.124;6.018;2024-02-21T04:48:59;20.02;;;10.07;;
47599;SDS011;33323;52.124;6.018;2024-02-21T04:51:26;17.52;;;9.63;;
47599;SDS011;33323;52.124;6.018;2024-02-21T04:53:53;23.77;;;9.95;;
47599;SDS011;33323;52.124;6.018;2024-02-21T04:56:20;21.48;;;9.32;;
47599;SDS011;33323;52.124;6.018;2024-02-21T04:58:47;19.92;;;9.25;;
47599;SDS011;33323;52.124;6.018;2024-02-21T05:01:14;18.08;;;8.50;;
47599;SDS011;33323;52.124;6.018;2024-02-21T05:03:41;25.33;;;9.25;;
47599;SDS011;33323;52.124;6.018;2024-02-21T05:06:09;19.50;;;9.13;;
47599;SDS011;33323;52.124;6.018;2024-02-21T05:08:36;23.42;;;9.05;;
47599;SDS011;33323;52.124;6.018;2024-02-21T05:11:03;17.67;;;9.05;;
47599;SDS011;33323;52.124;6.018;2024-02-21T05:13:30;21.00;;;9.80;;
47599;SDS011;33323;52.124;6.018;2024-02-21T05:15:57;21.92;;;9.75;;
47599;SDS011;33323;52.124;6.018;2024-02-21T05:18:27;22.13;;;9.52;;
47599;SDS011;33323;52.124;6.018;2024-02-21T05:20:55;27.98;;;11.13;;
47599;SDS011;33323;52.124;6.018;2024-02-21T05:23:22;13.77;;;8.43;;
47599;SDS011;33323;52.124;6.018;2024-02-21T05:25:49;19.50;;;9.18;;
47599;SDS011;33323;52.124;6.018;2024-02-21T05:28:16;20.73;;;8.10;;
47599;SDS011;33323;52.124;6.018;2024-02-21T05:30:43;22.27;;;8.68;;
47599;SDS011;33323;52.124;6.018;2024-02-21T05:33:10;22.38;;;8.38;;
47599;SDS011;33323;52.124;6.018;2024-02-21T05:35:37;17.90;;;8.48;;
47599;SDS011;33323;52.124;6.018;2024-02-21T05:38:05;23.88;;;8.80;;
47599;SDS011;33323;52.124;6.018;2024-02-21T05:40:37;19.17;;;9.15;;
47599;SDS011;33323;52.124;6.018;2024-02-21T05:43:05;17.17;;;8.65;;
47599;SDS011;33323;52.124;6.018;2024-02-21T05:45:34;19.67;;;8.23;;
47599;SDS011;33323;52.124;6.018;2024-02-21T05:48:02;15.25;;;7.95;;
47599;SDS011;33323;52.124;6.018;2024-02-21T05:50:32;25.73;;;9.82;;
47599;SDS011;33323;52.124;6.018;2024-02-21T05:53:00;23.27;;;9.35;;
47599;SDS011;33323;52.124;6.018;2024-02-21T05:55:27;27.90;;;9.88;;
47599;SDS011;33323;52.124;6.018;2024-02-21T05:57:54;21.15;;;9.52;;
47599;SDS011;33323;52.124;6.018;2024-02-21T06:00:21;23.42;;;9.82;;
47599;SDS011;33323;52.124;6.018;2024-02-21T06:02:48;22.88;;;9.52;;
47599;SDS011;33323;52.124;6.018;2024-02-21T06:05:16;17.98;;;9.00;;
47599;SDS011;33323;52.124;6.018;2024-02-21T06:07:43;19.52;;;9.63;;
47599;SDS011;33323;52.124;6.018;2024-02-21T06:10:10;24.98;;;9.70;;
47599;SDS011;33323;52.124;6.018;2024-02-21T06:12:37;20.40;;;9.73;;
47599;SDS011;33323;52.124;6.018;2024-02-21T06:15:04;27.00;;;9.50;;
47599;SDS011;33323;52.124;6.018;2024-02-21T06:17:32;25.55;;;11.50;;
47599;SDS011;33323;52.124;6.018;2024-02-21T06:19:59;22.75;;;10.38;;
47599;SDS011;33323;52.124;6.018;2024-02-21T06:22:26;23.27;;;10.32;;
47599;SDS011;33323;52.124;6.018;2024-02-21T06:24:53;26.33;;;11.77;;
47599;SDS011;33323;52.124;6.018;2024-02-21T06:27:21;19.50;;;10.15;;
47599;SDS011;33323;52.124;6.018;2024-02-21T06:29:48;34.22;;;12.20;;
47599;SDS011;33323;52.124;6.018;2024-02-21T06:32:15;31.88;;;12.95;;
47599;SDS011;33323;52.124;6.018;2024-02-21T06:34:41;29.20;;;11.77;;
47599;SDS011;33323;52.124;6.018;2024-02-21T06:37:09;24.90;;;10.82;;
47599;SDS011;33323;52.124;6.018;2024-02-21T06:39:35;27.05;;;13.80;;
47599;SDS011;33323;52.124;6.018;2024-02-21T06:42:04;23.63;;;11.23;;
47599;SDS011;33323;52.124;6.018;2024-02-21T06:44:31;20.88;;;11.50;;
47599;SDS011;33323;52.124;6.018;2024-02-21T06:47:01;24.92;;;11.85;;
47599;SDS011;33323;52.124;6.018;2024-02-21T06:49:29;23.75;;;10.90;;
47599;SDS011;33323;52.124;6.018;2024-02-21T06:51:56;21.30;;;11.30;;
47599;SDS011;33323;52.124;6.018;2024-02-21T06:54:23;20.40;;;10.50;;
47599;SDS011;33323;52.124;6.018;2024-02-21T06:56:50;23.63;;;11.00;;
47599;SDS011;33323;52.124;6.018;2024-02-21T06:59:17;27.10;;;11.35;;
47599;SDS011;33323;52.124;6.018;2024-02-21T07:01:45;21.45;;;10.23;;
47599;SDS011;33323;52.124;6.018;2024-02-21T07:04:14;24.73;;;11.07;;
47599;SDS011;33323;52.124;6.018;2024-02-21T07:06:42;22.88;;;8.93;;
47599;SDS011;33323;52.124;6.018;2024-02-21T07:09:09;18.95;;;9.38;;
47599;SDS011;33323;52.124;6.018;2024-02-21T07:11:36;20.08;;;10.57;;
47599;SDS011;33323;52.124;6.018;2024-02-21T07:14:03;24.02;;;9.60;;
47599;SDS011;33323;52.124;6.018;2024-02-21T07:16:30;15.82;;;9.00;;
47599;SDS011;33323;52.124;6.018;2024-02-21T07:18:59;24.92;;;9.77;;
47599;SDS011;33323;52.124;6.018;2024-02-21T07:21:26;21.13;;;10.38;;
47599;SDS011;33323;52.124;6.018;2024-02-21T07:23:53;18.83;;;9.13;;
47599;SDS011;33323;52.124;6.018;2024-02-21T07:26:20;18.27;;;9.32;;
47599;SDS011;33323;52.124;6.018;2024-02-21T07:28:48;24.63;;;8.88;;
47599;SDS011;33323;52.124;6.018;2024-02-21T07:31:15;21.33;;;8.77;;
47599;SDS011;33323;52.124;6.018;2024-02-21T07:33:43;24.77;;;9.38;;
47599;SDS011;33323;52.124;6.018;2024-02-21T07:36:10;17.67;;;7.38;;
47599;SDS011;33323;52.124;6.018;2024-02-21T07:38:38;13.32;;;7.45;;
47599;SDS011;33323;52.124;6.018;2024-02-21T07:41:05;13.43;;;6.88;;
47599;SDS011;33323;52.124;6.018;2024-02-21T07:43:32;18.20;;;7.68;;
47599;SDS011;33323;52.124;6.018;2024-02-21T07:46:00;19.17;;;8.85;;
47599;SDS011;33323;52.124;6.018;2024-02-21T07:48:27;17.77;;;8.63;;
47599;SDS011;33323;52.124;6.018;2024-02-21T07:50:55;19.05;;;9.52;;
47599;SDS011;33323;52.124;6.018;2024-02-21T07:53:22;17.15;;;8.07;;
47599;SDS011;33323;52.124;6.018;2024-02-21T07:55:49;19.15;;;7.82;;
47599;SDS011;33323;52.124;6.018;2024-02-21T07:58:16;16.17;;;7.15;;
47599;SDS011;33323;52.124;6.018;2024-02-21T08:00:43;14.48;;;7.18;;
47599;SDS011;33323;52.124;6.018;2024-02-21T08:03:11;16.35;;;7.72;;
47599;SDS011;33323;52.124;6.018;2024-02-21T08:05:38;19.73;;;7.15;;
47599;SDS011;33323;52.124;6.018;2024-02-21T08:08:05;24.42;;;9.18;;
47599;SDS011;33323;52.124;6.018;2024-02-21T08:10:34;14.35;;;6.90;;
47599;SDS011;33323;52.124;6.018;2024-02-21T08:13:01;19.08;;;7.38;;
47599;SDS011;33323;52.124;6.018;2024-02-21T08:15:28;17.55;;;7.22;;
47599;SDS011;33323;52.124;6.018;2024-02-21T08:17:56;23.45;;;8.20;;
47599;SDS011;33323;52.124;6.018;2024-02-21T08:20:26;23.05;;;8.80;;
47599;SDS011;33323;52.124;6.018;2024-02-21T08:22:53;13.85;;;7.40;;
47599;SDS011;33323;52.124;6.018;2024-02-21T08:25:21;17.52;;;9.35;;
47599;SDS011;33323;52.124;6.018;2024-02-21T08:27:48;16.55;;;6.95;;
47599;SDS011;33323;52.124;6.018;2024-02-21T08:30:15;14.77;;;6.65;;
47599;SDS011;33323;52.124;6.018;2024-02-21T08:32:42;19.80;;;8.77;;
47599;SDS011;33323;52.124;6.018;2024-02-21T08:35:09;15.95;;;6.35;;
47599;SDS011;33323;52.124;6.018;2024-02-21T08:37:37;16.52;;;6.80;;
47599;SDS011;33323;52.124;6.018;2024-02-21T08:40:04;12.52;;;6.93;;
47599;SDS011;33323;52.124;6.018;2024-02-21T08:42:36;19.20;;;7.68;;
47599;SDS011;33323;52.124;6.018;2024-02-21T08:45:05;18.33;;;7.18;;
47599;SDS011;33323;52.124;6.018;2024-02-21T08:47:33;15.38;;;6.78;;
47599;SDS011;33323;52.124;6.018;2024-02-21T08:50:01;16.88;;;7.07;;
47599;SDS011;33323;52.124;6.018;2024-02-21T08:52:44;14.13;;;6.93;;
47599;SDS011;33323;52.124;6.018;2024-02-21T08:55:11;15.85;;;7.03;;
47599;SDS011;33323;52.124;6.018;2024-02-21T08:57:38;14.50;;;6.88;;
47599;SDS011;33323;52.124;6.018;2024-02-21T09:00:05;14.73;;;7.35;;
47599;SDS011;33323;52.124;6.018;2024-02-21T09:02:37;17.02;;;6.68;;
47599;SDS011;33323;52.124;6.018;2024-02-21T09:05:11;21.40;;;8.60;;
47599;SDS011;33323;52.124;6.018;2024-02-21T09:07:38;23.52;;;7.70;;
47599;SDS011;33323;52.124;6.018;2024-02-21T09:10:06;19.38;;;7.25;;
47599;SDS011;33323;52.124;6.018;2024-02-21T09:12:33;16.15;;;7.85;;
47599;SDS011;33323;52.124;6.018;2024-02-21T09:15:01;19.77;;;7.60;;
47599;SDS011;33323;52.124;6.018;2024-02-21T09:17:29;18.63;;;8.65;;
47599;SDS011;33323;52.124;6.018;2024-02-21T09:19:56;21.60;;;9.13;;
47599;SDS011;33323;52.124;6.018;2024-02-21T09:22:29;15.98;;;7.05;;
47599;SDS011;33323;52.124;6.018;2024-02-21T09:24:57;16.98;;;7.88;;
47599;SDS011;33323;52.124;6.018;2024-02-21T09:27:25;17.50;;;7.90;;
47599;SDS011;33323;52.124;6.018;2024-02-21T09:29:52;17.02;;;7.22;;
47599;SDS011;33323;52.124;6.018;2024-02-21T09:32:19;12.68;;;6.60;;
47599;SDS011;33323;52.124;6.018;2024-02-21T09:34:46;14.77;;;7.35;;
47599;SDS011;33323;52.124;6.018;2024-02-21T09:37:13;14.18;;;7.35;;
47599;SDS011;33323;52.124;6.018;2024-02-21T09:39:40;15.20;;;9.80;;
47599;SDS011;33323;52.124;6.018;2024-02-21T09:42:08;16.88;;;6.63;;
47599;SDS011;33323;52.124;6.018;2024-02-21T09:44:38;13.25;;;5.90;;
47599;SDS011;33323;52.124;6.018;2024-02-21T09:47:14;16.48;;;9.38;;
47599;SDS011;33323;52.124;6.018;2024-02-21T09:49:49;15.68;;;6.88;;
47599;SDS011;33323;52.124;6.018;2024-02-21T09:52:18;11.52;;;6.32;;
47599;SDS011;33323;52.124;6.018;2024-02-21T09:54:47;14.43;;;6.70;;
47599;SDS011;33323;52.124;6.018;2024-02-21T09:57:15;12.80;;;5.30;;
47599;SDS011;33323;52.124;6.018;2024-02-21T09:59:42;13.13;;;5.80;;
47599;SDS011;33323;52.124;6.018;2024-02-21T10:02:12;11.77;;;5.60;;
47599;SDS011;33323;52.124;6.018;2024-02-21T10:04:39;14.00;;;7.53;;
47599;SDS011;33323;52.124;6.018;2024-02-21T10:07:07;14.90;;;5.72;;
47599;SDS011;33323;52.124;6.018;2024-02-21T10:09:35;8.57;;;5.57;;
47599;SDS011;33323;52.124;6.018;2024-02-21T10:12:09;12.00;;;6.00;;
47599;SDS011;33323;52.124;6.018;2024-02-21T10:14:39;14.30;;;5.88;;
47599;SDS011;33323;52.124;6.018;2024-02-21T10:17:06;11.48;;;5.82;;
47599;SDS011;33323;52.124;6.018;2024-02-21T10:19:37;11.82;;;5.45;;
47599;SDS011;33323;52.124;6.018;2024-02-21T10:22:07;12.13;;;6.18;;
47599;SDS011;33323;52.124;6.018;2024-02-21T10:24:36;11.02;;;5.40;;
47599;SDS011;33323;52.124;6.018;2024-02-21T10:27:09;10.13;;;5.47;;
47599;SDS011;33323;52.124;6.018;2024-02-21T10:29:40;9.30;;;4.90;;
47599;SDS011;33323;52.124;6.018;2024-02-21T10:32:09;13.85;;;6.30;;
47599;SDS011;33323;52.124;6.018;2024-02-21T10:34:39;7.95;;;4.47;;
47599;SDS011;33323;52.124;6.018;2024-02-21T10:37:09;11.93;;;5.18;;
47599;SDS011;33323;52.124;6.018;2024-02-21T10:39:38;10.60;;;5.95;;
47599;SDS011;33323;52.124;6.018;2024-02-21T10:42:08;8.02;;;4.68;;
47599;SDS011;33323;52.124;6.018;2024-02-21T10:44:39;12.40;;;5.03;;
47599;SDS011;33323;52.124;6.018;2024-02-21T10:47:09;9.05;;;4.35;;
47599;SDS011;33323;52.124;6.018;2024-02-21T10:49:39;12.68;;;5.07;;
47599;SDS011;33323;52.124;6.018;2024-02-21T10:52:13;8.95;;;5.32;;
47599;SDS011;33323;52.124;6.018;2024-02-21T10:55:11;10.32;;;4.80;;
47599;SDS011;33323;52.124;6.018;2024-02-21T10:58:05;9.70;;;4.97;;
47599;SDS011;33323;52.124;6.018;2024-02-21T11:00:32;10.63;;;4.65;;
47599;SDS011;33323;52.124;6.018;2024-02-21T11:03:00;8.70;;;4.38;;
47599;SDS011;33323;52.124;6.018;2024-02-21T11:05:28;6.93;;;4.55;;
47599;SDS011;33323;52.124;6.018;2024-02-21T11:07:57;6.88;;;4.38;;
47599;SDS011;33323;52.124;6.018;2024-02-21T11:10:25;15.98;;;4.70;;
47599;SDS011;33323;52.124;6.018;2024-02-21T11:15:34;6.00;;;4.00;;
47599;SDS011;33323;52.124;6.018;2024-02-21T11:18:01;7.20;;;3.90;;
47599;SDS011;33323;52.124;6.018;2024-02-21T11:20:33;9.35;;;4.50;;
47599;SDS011;33323;52.124;6.018;2024-02-21T11:23:04;7.50;;;3.88;;
47599;SDS011;33323;52.124;6.018;2024-02-21T11:25:32;7.28;;;4.18;;
47599;SDS011;33323;52.124;6.018;2024-02-21T11:28:01;7.28;;;4.32;;
47599;SDS011;33323;52.124;6.018;2024-02-21T11:30:30;7.05;;;4.82;;
47599;SDS011;33323;52.124;6.018;2024-02-21T11:33:00;8.70;;;4.78;;
47599;SDS011;33323;52.124;6.018;2024-02-21T11:35:35;9.13;;;4.95;;
47599;SDS011;33323;52.124;6.018;2024-02-21T11:38:13;12.52;;;5.13;;
47599;SDS011;33323;52.124;6.018;2024-02-21T11:40:44;7.63;;;4.60;;
47599;SDS011;33323;52.124;6.018;2024-02-21T11:43:12;9.60;;;5.45;;
47599;SDS011;33323;52.124;6.018;2024-02-21T11:45:39;8.25;;;4.75;;
47599;SDS011;33323;52.124;6.018;2024-02-21T11:48:07;9.15;;;5.18;;
47599;SDS011;33323;52.124;6.018;2024-02-21T11:50:34;10.65;;;5.25;;
47599;SDS011;33323;52.124;6.018;2024-02-21T11:53:03;10.15;;;5.05;;
47599;SDS011;33323;52.124;6.018;2024-02-21T11:55:30;7.85;;;5.82;;
47599;SDS011;33323;52.124;6.018;2024-02-21T11:57:58;8.52;;;5.80;;
47599;SDS011;33323;52.124;6.018;2024-02-21T12:00:25;16.35;;;7.15;;
47599;SDS011;33323;52.124;6.018;2024-02-21T12:02:53;11.35;;;5.25;;
47599;SDS011;33323;52.124;6.018;2024-02-21T12:05:26;9.43;;;5.15;;
47599;SDS011;33323;52.124;6.018;2024-02-21T12:07:55;9.75;;;5.22;;
47599;SDS011;33323;52.124;6.018;2024-02-21T12:10:28;8.02;;;4.93;;
47599;SDS011;33323;52.124;6.018;2024-02-21T12:13:05;11.90;;;5.45;;
47599;SDS011;33323;52.124;6.018;2024-02-21T12:15:40;15.48;;;5.68;;
47599;SDS011;33323;52.124;6.018;2024-02-21T12:18:10;13.38;;;5.68;;
47599;SDS011;33323;52.124;6.018;2024-02-21T12:20:37;12.60;;;6.50;;
47599;SDS011;33323;52.124;6.018;2024-02-21T12:23:08;10.15;;;4.97;;
47599;SDS011;33323;52.124;6.018;2024-02-21T12:25:40;12.52;;;5.20;;
47599;SDS011;33323;52.124;6.018;2024-02-21T12:28:07;8.00;;;5.05;;
47599;SDS011;33323;52.124;6.018;2024-02-21T12:30:35;10.95;;;5.72;;
47599;SDS011;33323;52.124;6.018;2024-02-21T12:33:06;10.02;;;5.53;;
47599;SDS011;33323;52.124;6.018;2024-02-21T12:35:33;11.77;;;6.40;;
47599;SDS011;33323;52.124;6.018;2024-02-21T12:38:01;14.88;;;6.55;;
47599;SDS011;33323;52.124;6.018;2024-02-21T12:40:29;8.63;;;4.38;;
47599;SDS011;33323;52.124;6.018;2024-02-21T12:43:00;11.25;;;5.22;;
47599;SDS011;33323;52.124;6.018;2024-02-21T12:45:29;11.98;;;5.07;;
47599;SDS011;33323;52.124;6.018;2024-02-21T12:47:57;10.30;;;4.15;;
47599;SDS011;33323;52.124;6.018;2024-02-21T12:50:24;8.52;;;4.90;;
47599;SDS011;33323;52.124;6.018;2024-02-21T12:52:52;12.63;;;4.75;;
47599;SDS011;33323;52.124;6.018;2024-02-21T12:55:20;9.32;;;4.68;;
47599;SDS011;33323;52.124;6.018;2024-02-21T12:57:47;7.90;;;4.28;;
47599;SDS011;33323;52.124;6.018;2024-02-21T13:00:15;11.13;;;4.95;;
47599;SDS011;33323;52.124;6.018;2024-02-21T13:02:43;7.82;;;4.35;;
47599;SDS011;33323;52.124;6.018;2024-02-21T13:05:12;11.13;;;3.95;;
47599;SDS011;33323;52.124;6.018;2024-02-21T13:07:40;7.63;;;3.95;;
47599;SDS011;33323;52.124;6.018;2024-02-21T13:10:07;8.00;;;4.40;;
47599;SDS011;33323;52.124;6.018;2024-02-21T13:12:35;10.40;;;4.05;;
47599;SDS011;33323;52.124;6.018;2024-02-21T13:15:03;9.52;;;4.75;;
47599;SDS011;33323;52.124;6.018;2024-02-21T13:17:31;10.40;;;4.93;;
47599;SDS011;33323;52.124;6.018;2024-02-21T13:20:01;6.88;;;3.67;;
47599;SDS011;33323;52.124;6.018;2024-02-21T13:22:30;8.98;;;4.18;;
47599;SDS011;33323;52.124;6.018;2024-02-21T13:25:00;8.52;;;3.53;;
47599;SDS011;33323;52.124;6.018;2024-02-21T13:27:31;8.55;;;3.25;;
47599;SDS011;33323;52.124;6.018;2024-02-21T13:29:59;12.30;;;3.65;;
47599;SDS011;33323;52.124;6.018;2024-02-21T13:32:29;7.38;;;4.13;;
47599;SDS011;33323;52.124;6.018;2024-02-21T13:34:57;9.27;;;4.47;;
47599;SDS011;33323;52.124;6.018;2024-02-21T13:37:27;7.00;;;4.47;;
47599;SDS011;33323;52.124;6.018;2024-02-21T13:39:55;9.88;;;4.40;;
47599;SDS011;33323;52.124;6.018;2024-02-21T13:42:23;8.13;;;3.80;;
47599;SDS011;33323;52.124;6.018;2024-02-21T13:44:54;11.65;;;5.22;;
47599;SDS011;33323;52.124;6.018;2024-02-21T13:47:21;10.27;;;4.25;;
47599;SDS011;33323;52.124;6.018;2024-02-21T13:49:49;13.35;;;4.55;;
47599;SDS011;33323;52.124;6.018;2024-02-21T13:52:16;8.75;;;4.47;;
47599;SDS011;33323;52.124;6.018;2024-02-21T13:54:46;12.88;;;4.82;;
47599;SDS011;33323;52.124;6.018;2024-02-21T13:57:15;11.90;;;5.15;;
47599;SDS011;33323;52.124;6.018;2024-02-21T13:59:42;8.90;;;4.15;;
47599;SDS011;33323;52.124;6.018;2024-02-21T14:02:10;9.73;;;3.72;;
47599;SDS011;33323;52.124;6.018;2024-02-21T14:04:39;16.00;;;4.60;;
47599;SDS011;33323;52.124;6.018;2024-02-21T14:07:06;9.90;;;4.28;;
47599;SDS011;33323;52.124;6.018;2024-02-21T14:09:34;7.43;;;3.70;;
47599;SDS011;33323;52.124;6.018;2024-02-21T14:12:02;8.65;;;3.80;;
47599;SDS011;33323;52.124;6.018;2024-02-21T14:14:29;8.52;;;3.72;;
47599;SDS011;33323;52.124;6.018;2024-02-21T14:17:04;7.63;;;4.25;;
47599;SDS011;33323;52.124;6.018;2024-02-21T14:19:31;6.88;;;3.60;;
47599;SDS011;33323;52.124;6.018;2024-02-21T14:21:59;8.82;;;3.78;;
47599;SDS011;33323;52.124;6.018;2024-02-21T14:24:30;13.27;;;3.50;;
47599;SDS011;33323;52.124;6.018;2024-02-21T14:26:58;8.23;;;3.83;;
47599;SDS011;33323;52.124;6.018;2024-02-21T14:29:26;11.77;;;4.38;;
47599;SDS011;33323;52.124;6.018;2024-02-21T14:31:53;8.82;;;3.33;;
47599;SDS011;33323;52.124;6.018;2024-02-21T14:34:21;11.93;;;3.50;;
47599;SDS011;33323;52.124;6.018;2024-02-21T14:36:48;9.57;;;3.58;;
47599;SDS011;33323;52.124;6.018;2024-02-21T14:39:16;8.90;;;3.13;;
47599;SDS011;33323;52.124;6.018;2024-02-21T14:41:43;7.13;;;3.47;;
47599;SDS011;33323;52.124;6.018;2024-02-21T14:44:11;7.45;;;2.92;;